Time;durP1;ratioP1;P1;durP2;ratioP2;P2;SDS_P1;SDS_P2;PMS_P1;PMS_P2;Temp;Humidity;BMP_temperature;BMP_pressure;BME280_temperature;BME280_humidity;BME280_pressure;Samples;Min_cycle;Max_cycle;Signal;HPM_P1;HPM_P2
2022/11/09 00:01:20;;;;;;;;;7.75;3.00;;;;;16.17;59.78;100173.31;5086415;27;46211;-45
2022/11/09 00:03:46;;;;;;;;;4.75;3.00;;;;;16.19;59.44;100173.22;5080049;27;45482;-45
2022/11/09 00:06:12;;;;;;;;;6.25;3.75;;;;;16.16;59.71;100174.22;5058106;28;45363;-45
2022/11/09 00:08:40;;;;;;;;;8.75;4.50;;;;;16.12;59.66;100178.00;5078782;28;49987;-44
2022/11/09 00:11:07;;;;;;;;;10.00;4.75;;;;;16.10;59.94;100172.81;5071943;28;46354;-49
2022/11/09 00:13:41;;;;;;;;;5.00;4.00;;;;;16.10;59.94;100185.16;5079826;28;45447;-44
2022/11/09 00:16:08;;;;;;;;;10.00;3.00;;;;;16.12;60.01;100197.31;5072657;28;45426;-50
2022/11/09 00:18:34;;;;;;;;;7.75;5.00;;;;;16.14;60.07;100200.72;5066187;28;45449;-44
2022/11/09 00:21:05;;;;;;;;;3.00;3.00;;;;;16.16;59.77;100197.13;5075112;27;46251;-46
2022/11/09 00:23:30;;;;;;;;;2.75;2.00;;;;;16.15;60.23;100193.66;5073655;28;45498;-45
2022/11/09 00:26:02;;;;;;;;;3.00;2.00;;;;;16.12;60.48;100197.31;5070990;28;66966;-47
2022/11/09 00:28:28;;;;;;;;;8.75;3.75;;;;;16.06;60.94;100189.78;5077407;28;45230;-48
2022/11/09 00:31:00;;;;;;;;;2.25;2.25;;;;;16.02;61.14;100192.66;5072574;28;58485;-46
2022/11/09 00:33:26;;;;;;;;;5.00;3.00;;;;;15.97;61.10;100182.41;5072697;27;45406;-49
2022/11/09 00:35:51;;;;;;;;;6.50;3.50;;;;;15.96;61.63;100151.66;5062989;28;45360;-47
2022/11/09 00:38:16;;;;;;;;;3.00;2.00;;;;;15.96;61.28;100133.19;5081409;27;53777;-47
2022/11/09 00:40:42;;;;;;;;;5.00;3.50;;;;;15.94;61.56;100130.63;5077092;27;73081;-44
2022/11/09 00:43:07;;;;;;;;;6.00;4.00;;;;;15.94;61.76;100137.72;5077159;27;45216;-44
2022/11/09 00:45:32;;;;;;;;;5.75;3.25;;;;;15.96;62.30;100134.97;5064758;27;55554;-45
2022/11/09 00:47:58;;;;;;;;;12.25;6.25;;;;;15.97;62.03;100145.44;5077659;27;62917;-44
2022/11/09 00:50:23;;;;;;;;;4.00;2.75;;;;;15.98;61.96;100152.41;5079068;27;67120;-44
2022/11/09 00:52:48;;;;;;;;;5.25;2.00;;;;;15.99;61.83;100155.88;5069939;27;71779;-45
2022/11/09 00:55:14;;;;;;;;;6.50;2.50;;;;;15.96;61.97;100159.56;5074087;27;46953;-45
2022/11/09 00:57:39;;;;;;;;;2.00;2.00;;;;;15.98;62.02;100159.50;5066757;28;45264;-44
2022/11/09 01:00:05;;;;;;;;;6.50;3.50;;;;;15.98;62.19;100162.13;5075798;27;70235;-47
2022/11/09 01:02:30;;;;;;;;;3.00;2.75;;;;;15.98;62.25;100164.75;5078051;28;45199;-48
2022/11/09 01:04:56;;;;;;;;;4.00;2.00;;;;;15.98;61.74;100175.31;5070691;28;68450;-44
2022/11/09 01:07:21;;;;;;;;;3.00;2.50;;;;;15.94;61.92;100169.38;5055201;28;69286;-48
2022/11/09 01:09:46;;;;;;;;;3.25;2.00;;;;;15.92;62.11;100173.91;5068500;28;76560;-45
2022/11/09 01:12:12;;;;;;;;;6.50;3.00;;;;;15.90;62.05;100173.97;5079170;27;71197;-45
2022/11/09 01:14:37;;;;;;;;;3.25;2.00;;;;;15.90;62.13;100179.25;5088094;27;54061;-45
2022/11/09 01:17:03;;;;;;;;;3.75;2.50;;;;;15.90;62.04;100175.75;5076328;27;45303;-49
2022/11/09 01:19:28;;;;;;;;;2.00;2.00;;;;;15.89;62.05;100177.56;5077859;27;59806;-46
2022/11/09 01:21:53;;;;;;;;;4.00;1.75;;;;;15.89;61.77;100176.72;5083706;27;71924;-50
2022/11/09 01:24:19;;;;;;;;;2.50;2.25;;;;;15.88;61.95;100188.19;5073537;27;65758;-45
2022/11/09 01:26:44;;;;;;;;;4.75;3.00;;;;;15.88;62.23;100186.41;5070834;28;45451;-45
2022/11/09 01:29:09;;;;;;;;;5.00;1.50;;;;;15.90;62.12;100189.81;5064483;28;47185;-45
2022/11/09 01:31:35;;;;;;;;;4.00;3.75;;;;;15.89;62.14;100190.75;5060723;28;68408;-49
2022/11/09 01:34:00;;;;;;;;;3.75;2.00;;;;;15.84;61.98;100198.06;5066567;27;59665;-49
2022/11/09 01:36:25;;;;;;;;;4.50;1.00;;;;;15.79;62.07;100197.47;5076737;28;69960;-47
2022/11/09 01:38:51;;;;;;;;;3.00;1.75;;;;;15.75;62.09;100201.25;5067125;27;45925;-47
2022/11/09 01:41:25;;;;;;;;;3.75;2.00;;;;;15.71;62.13;100211.09;5077051;28;45383;-45
2022/11/09 01:44:08;;;;;;;;;2.25;1.25;;;;;15.70;62.28;100213.81;5070077;28;45458;-44
2022/11/09 01:46:38;;;;;;;;;2.00;2.00;;;;;15.67;61.73;100209.56;5069762;27;45441;-46
2022/11/09 01:49:10;;;;;;;;;3.00;2.50;;;;;15.66;61.84;100204.38;5070620;28;45636;-46
2022/11/09 01:51:39;;;;;;;;;3.00;3.00;;;;;15.65;62.11;100202.66;5075353;27;45445;-43
2022/11/09 01:54:09;;;;;;;;;2.75;1.00;;;;;15.62;61.56;100203.69;5077487;27;45508;-45
2022/11/09 01:56:35;;;;;;;;;2.75;2.00;;;;;15.58;61.91;100210.06;5082692;28;45355;-46
2022/11/09 01:59:09;;;;;;;;;2.00;2.00;;;;;15.55;62.12;100212.91;5062892;28;74772;-44
2022/11/09 02:01:35;;;;;;;;;2.75;1.75;;;;;15.53;62.24;100223.53;5068874;27;45449;-45
2022/11/09 02:04:05;;;;;;;;;1.25;1.00;;;;;15.53;61.65;100236.72;5073239;27;45497;-46
2022/11/09 02:06:31;;;;;;;;;2.50;0.75;;;;;15.50;62.16;100233.41;5080479;27;45305;-46
2022/11/09 02:09:21;;;;;;;;;5.00;1.75;;;;;15.46;61.74;100245.91;5073066;28;70623;-45
2022/11/09 02:11:46;;;;;;;;;3.75;0.75;;;;;15.42;61.63;100232.97;5077178;27;45298;-48
2022/11/09 02:14:12;;;;;;;;;3.75;1.00;;;;;15.40;61.88;100225.13;5074299;27;52123;-48
2022/11/09 02:16:37;;;;;;;;;0.75;0.75;;;;;15.40;61.58;100245.38;5070526;27;45385;-48
2022/11/09 02:19:02;;;;;;;;;1.50;1.25;;;;;15.36;61.69;100239.44;5072787;27;45403;-46
2022/11/09 02:21:30;;;;;;;;;6.25;1.25;;;;;15.32;61.87;100232.63;5067624;27;50340;-47
2022/11/09 02:23:55;;;;;;;;;3.00;0.75;;;;;15.30;62.08;100229.25;5065048;28;45273;-43
2022/11/09 02:26:29;;;;;;;;;3.00;1.25;;;;;15.28;62.01;100225.81;5081133;27;45917;-47
2022/11/09 02:28:55;;;;;;;;;4.00;3.00;;;;;15.29;61.94;100220.47;5069787;28;46546;-47
2022/11/09 02:31:21;;;;;;;;;1.50;1.50;;;;;15.27;61.68;100226.75;5073363;27;45259;-43
2022/11/09 02:33:50;;;;;;;;;4.25;1.75;;;;;15.27;61.61;100224.13;5071556;28;45368;-46
2022/11/09 02:36:16;;;;;;;;;5.25;2.00;;;;;15.23;61.63;100223.44;5080458;27;45440;-45
2022/11/09 02:38:41;;;;;;;;;3.25;1.25;;;;;15.19;61.45;100216.63;5071261;27;46128;-44
2022/11/09 02:41:07;;;;;;;;;3.75;1.75;;;;;15.16;61.88;100211.53;5081354;27;45485;-45
2022/11/09 02:43:34;;;;;;;;;2.75;0.75;;;;;15.14;61.56;100221.31;5078492;27;46856;-44
2022/11/09 02:45:59;;;;;;;;;4.75;1.25;;;;;15.11;61.74;100218.84;5079583;27;45426;-44
2022/11/09 02:48:25;;;;;;;;;2.00;0.75;;;;;15.10;61.59;100219.75;5074447;27;46138;-45
2022/11/09 02:50:50;;;;;;;;;1.00;0.75;;;;;15.07;61.96;100219.91;5072653;27;60079;-48
2022/11/09 02:53:15;;;;;;;;;1.75;0.00;;;;;15.04;61.66;100223.59;5068997;27;66882;-46
2022/11/09 02:55:41;;;;;;;;;3.75;1.00;;;;;15.03;61.60;100231.56;5064512;28;69897;-45
2022/11/09 02:58:06;;;;;;;;;0.50;0.50;;;;;14.99;61.83;100222.97;5061829;28;62092;-48
2022/11/09 03:00:31;;;;;;;;;4.75;1.00;;;;;14.98;61.47;100237.09;5073479;27;45431;-43
2022/11/09 03:02:57;;;;;;;;;0.75;0.75;;;;;14.95;61.45;100242.53;5070663;27;66027;-46
2022/11/09 03:05:22;;;;;;;;;2.75;1.00;;;;;14.92;61.33;100251.41;5064375;27;70585;-48
2022/11/09 03:07:47;;;;;;;;;1.00;1.00;;;;;14.90;61.21;100245.38;5065818;28;70671;-45
2022/11/09 03:10:13;;;;;;;;;1.75;0.00;;;;;14.88;61.49;100249.06;5078793;27;50323;-45
2022/11/09 03:12:38;;;;;;;;;0.25;0.25;;;;;14.88;61.80;100249.91;5066475;27;45356;-44
2022/11/09 03:15:07;;;;;;;;;1.50;0.25;;;;;14.87;61.64;100249.97;5061331;28;47345;-46
2022/11/09 03:17:32;;;;;;;;;0.50;0.00;;;;;14.87;61.15;100260.50;5075886;27;47131;-48
2022/11/09 03:19:58;;;;;;;;;7.00;0.25;;;;;14.80;61.31;100252.06;5070960;27;45429;-47
2022/11/09 03:22:23;;;;;;;;;0.25;0.00;;;;;14.78;61.17;100257.44;5066743;27;68126;-48
2022/11/09 03:24:48;;;;;;;;;0.00;0.00;;;;;14.77;61.41;100258.38;5078907;28;45235;-45
2022/11/09 03:27:14;;;;;;;;;2.00;1.00;;;;;14.75;61.06;100254.09;5070761;27;59436;-46
2022/11/09 03:29:39;;;;;;;;;0.25;0.00;;;;;14.72;61.28;100251.63;5068497;28;66377;-44
2022/11/09 03:32:05;;;;;;;;;2.50;0.00;;;;;14.70;61.51;100237.69;5067319;28;45245;-45
2022/11/09 03:34:30;;;;;;;;;0.25;0.25;;;;;14.67;61.04;100245.75;5078874;27;45466;-44
2022/11/09 03:36:56;;;;;;;;;0.25;0.25;;;;;14.64;61.27;100249.38;5079535;27;73215;-44
2022/11/09 03:39:21;;;;;;;;;0.25;0.00;;;;;14.63;61.58;100263.50;5065921;27;69701;-47
2022/11/09 03:41:46;;;;;;;;;0.00;0.00;;;;;14.61;61.00;100257.47;5067408;28;69494;-44
2022/11/09 03:44:12;;;;;;;;;0.00;0.00;;;;;14.59;61.50;100262.81;5088703;27;67094;-44
2022/11/09 03:46:37;;;;;;;;;3.25;1.00;;;;;14.57;61.16;100262.00;5074413;27;46292;-45
2022/11/09 03:49:03;;;;;;;;;2.50;0.50;;;;;14.57;61.34;100264.63;5066777;28;64173;-44
2022/11/09 03:51:28;;;;;;;;;0.25;0.25;;;;;14.58;61.81;100263.72;5074445;27;45489;-46
2022/11/09 03:53:53;;;;;;;;;2.00;0.00;;;;;14.60;61.24;100267.13;5079477;27;58649;-45
2022/11/09 03:56:19;;;;;;;;;1.50;0.00;;;;;14.60;61.00;100269.75;5065576;28;64787;-44
2022/11/09 03:58:44;;;;;;;;;0.00;0.00;;;;;14.59;61.32;100267.22;5066844;27;66133;-43
2022/11/09 04:01:09;;;;;;;;;1.50;0.50;;;;;14.57;61.09;100269.91;5076504;27;64478;-44
2022/11/09 04:03:35;;;;;;;;;0.00;0.00;;;;;14.56;61.19;100272.63;5068406;27;45510;-45
2022/11/09 04:06:01;;;;;;;;;0.75;0.00;;;;;14.55;61.51;100270.91;5068430;28;45372;-44
2022/11/09 04:08:26;;;;;;;;;0.00;0.00;;;;;14.55;61.46;100273.53;5061201;28;72028;-45
2022/11/09 04:10:51;;;;;;;;;0.00;0.00;;;;;14.51;61.41;100286.00;5073626;27;57722;-45
2022/11/09 04:13:17;;;;;;;;;1.00;0.00;;;;;14.47;61.17;100281.81;5077511;27;71249;-46
2022/11/09 04:15:42;;;;;;;;;1.00;0.75;;;;;14.42;61.14;100274.16;5068603;27;45990;-44
2022/11/09 04:18:11;;;;;;;;;1.00;0.50;;;;;14.42;61.43;100282.03;5088274;27;55012;-44
2022/11/09 04:20:36;;;;;;;;;1.50;0.00;;;;;14.37;61.60;100285.84;5060616;28;45363;-44
2022/11/09 04:23:04;;;;;;;;;0.75;0.00;;;;;14.36;61.85;100289.38;5060426;28;51747;-44
2022/11/09 04:25:35;;;;;;;;;2.50;0.00;;;;;14.36;61.83;100287.63;5065928;27;45595;-48
2022/11/09 04:28:01;;;;;;;;;0.50;0.00;;;;;14.35;61.47;100293.81;5068938;27;45737;-47
2022/11/09 04:30:28;;;;;;;;;2.00;0.00;;;;;14.35;61.28;100303.50;5058732;28;45362;-49
2022/11/09 04:32:58;;;;;;;;;0.75;0.75;;;;;14.35;61.56;100306.97;5072230;27;45476;-46
2022/11/09 04:35:24;;;;;;;;;2.00;0.50;;;;;14.34;61.51;100307.03;5075754;27;45523;-45
2022/11/09 04:37:57;;;;;;;;;1.00;0.00;;;;;14.31;61.53;100315.97;5073992;28;45316;-44
2022/11/09 04:40:24;;;;;;;;;2.00;0.25;;;;;14.31;61.77;100331.75;5066336;27;45292;-44
2022/11/09 04:42:50;;;;;;;;;1.00;1.00;;;;;14.31;61.40;100331.75;5076463;27;45347;-46
2022/11/09 04:45:16;;;;;;;;;1.00;1.00;;;;;14.31;61.73;100321.22;5073727;28;45697;-45
2022/11/09 04:47:41;;;;;;;;;3.25;1.00;;;;;14.31;61.80;100325.66;5073950;28;68373;-44
2022/11/09 04:50:07;;;;;;;;;3.00;0.00;;;;;14.33;61.85;100326.41;5061964;27;64548;-46
2022/11/09 04:52:32;;;;;;;;;0.00;0.00;;;;;14.30;61.55;100327.41;5074064;27;45547;-45
2022/11/09 04:54:57;;;;;;;;;1.00;0.00;;;;;14.28;61.50;100326.63;5071846;28;62083;-46
2022/11/09 04:57:23;;;;;;;;;1.00;0.00;;;;;14.26;61.43;100323.22;5077746;27;57795;-47
2022/11/09 04:59:48;;;;;;;;;1.00;0.00;;;;;14.27;61.46;100327.56;5069697;28;67794;-45
2022/11/09 05:02:13;;;;;;;;;0.00;0.00;;;;;14.26;61.75;100328.50;5070715;28;51243;-43
2022/11/09 05:04:39;;;;;;;;;1.50;0.25;;;;;14.26;61.47;100330.28;5062780;27;47340;-43
2022/11/09 05:07:04;;;;;;;;;0.00;0.00;;;;;14.26;61.41;100330.28;5065118;28;45477;-46
2022/11/09 05:09:29;;;;;;;;;0.00;0.00;;;;;14.22;61.60;100321.69;5072866;27;53706;-46
2022/11/09 05:11:55;;;;;;;;;0.00;0.00;;;;;14.21;61.84;100326.06;5077802;27;67935;-44
2022/11/09 05:14:20;;;;;;;;;1.75;0.50;;;;;14.19;61.57;100325.31;5067757;28;72157;-46
2022/11/09 05:16:45;;;;;;;;;1.00;0.00;;;;;14.19;61.37;100317.41;5078112;27;56337;-45
2022/11/09 05:19:11;;;;;;;;;0.75;0.75;;;;;14.19;61.73;100319.19;5059863;28;45493;-45
2022/11/09 05:21:36;;;;;;;;;0.00;0.00;;;;;14.17;61.74;100327.16;5074408;28;45314;-44
2022/11/09 05:24:02;;;;;;;;;1.00;1.00;;;;;14.18;61.73;100323.63;5075770;27;69750;-45
2022/11/09 05:26:38;;;;;;;;;2.00;0.00;;;;;14.19;61.51;100333.19;5078513;27;45547;-47
2022/11/09 05:29:08;;;;;;;;;1.50;0.25;;;;;14.17;61.89;100332.41;5078830;27;45985;-49
2022/11/09 05:31:34;;;;;;;;;1.50;0.00;;;;;14.16;61.66;100327.22;5071764;28;45455;-44
2022/11/09 05:34:00;;;;;;;;;0.75;0.00;;;;;14.14;61.51;100334.34;5082409;27;46184;-46
2022/11/09 05:36:26;;;;;;;;;3.00;1.00;;;;;14.13;61.68;100337.91;5081426;27;45348;-48
2022/11/09 05:38:52;;;;;;;;;0.00;0.00;;;;;14.13;62.19;100330.00;5068948;28;45530;-46
2022/11/09 05:41:17;;;;;;;;;2.75;0.25;;;;;14.12;61.85;100333.56;5080908;27;45559;-48
2022/11/09 05:43:43;;;;;;;;;0.50;0.50;;;;;14.12;61.78;100341.47;5067603;27;46177;-46
2022/11/09 05:46:09;;;;;;;;;2.25;1.00;;;;;14.12;62.16;100341.47;5068511;28;45789;-46
2022/11/09 05:48:35;;;;;;;;;0.75;0.50;;;;;14.15;61.91;100344.81;5082097;28;45442;-48
2022/11/09 05:51:02;;;;;;;;;3.50;1.00;;;;;14.18;62.41;100336.78;5075315;27;45515;-49
2022/11/09 05:53:28;;;;;;;;;2.25;1.00;;;;;14.21;61.98;100341.03;5072655;28;45500;-47
2022/11/09 05:55:53;;;;;;;;;0.50;0.00;;;;;14.22;62.14;100343.59;5077113;27;45319;-46
2022/11/09 05:58:19;;;;;;;;;2.00;1.00;;;;;14.22;62.35;100348.00;5080876;27;45358;-48
2022/11/09 06:00:44;;;;;;;;;2.00;1.50;;;;;14.23;61.87;100347.91;5080363;27;45376;-45
2022/11/09 06:03:10;;;;;;;;;1.25;1.00;;;;;14.23;62.12;100350.53;5071377;28;71301;-46
2022/11/09 06:05:39;;;;;;;;;1.00;1.00;;;;;14.26;61.97;100361.88;5080467;27;45910;-46
2022/11/09 06:08:09;;;;;;;;;1.25;1.00;;;;;14.28;62.01;100362.63;5078579;28;45186;-50
2022/11/09 06:10:35;;;;;;;;;2.25;0.75;;;;;14.27;62.07;100355.66;5083664;27;45406;-50
2022/11/09 06:13:00;;;;;;;;;0.25;0.25;;;;;14.26;61.96;100357.44;5072159;28;73557;-48
2022/11/09 06:15:26;;;;;;;;;2.00;0.50;;;;;14.25;62.58;100358.34;5070693;27;45421;-50
2022/11/09 06:17:52;;;;;;;;;4.75;3.25;;;;;14.24;62.47;100357.50;5078260;27;68369;-48
2022/11/09 06:20:17;;;;;;;;;7.25;4.25;;;;;14.24;62.48;100361.94;5078263;27;45456;-48
2022/11/09 06:22:42;;;;;;;;;1.75;1.00;;;;;14.23;61.96;100362.84;5073818;28;64207;-49
2022/11/09 06:25:08;;;;;;;;;2.25;2.00;;;;;14.20;62.63;100358.59;5066619;27;66084;-49
2022/11/09 06:27:33;;;;;;;;;3.25;1.00;;;;;14.18;62.88;100368.34;5068286;28;55272;-47
2022/11/09 06:29:58;;;;;;;;;1.00;1.00;;;;;14.17;62.76;100371.06;5076278;27;60689;-44
2022/11/09 06:32:24;;;;;;;;;1.00;1.00;;;;;14.18;62.67;100372.75;5078767;27;72704;-44
2022/11/09 06:34:49;;;;;;;;;2.25;1.25;;;;;14.20;63.04;100374.38;5077284;27;58604;-44
2022/11/09 06:37:16;;;;;;;;;4.25;1.00;;;;;14.20;63.02;100387.53;5077966;27;64272;-45
2022/11/09 06:39:42;;;;;;;;;4.00;3.25;;;;;14.20;62.80;100386.66;5082116;27;45528;-45
2022/11/09 06:42:07;;;;;;;;;4.00;1.50;;;;;14.19;63.06;100387.63;5081336;27;46852;-47
2022/11/09 06:44:33;;;;;;;;;5.00;2.50;;;;;14.16;63.19;100395.66;5074896;27;61208;-49
2022/11/09 06:46:58;;;;;;;;;4.50;2.00;;;;;14.15;63.33;100392.19;5079196;28;58190;-46
2022/11/09 06:49:23;;;;;;;;;6.25;3.25;;;;;14.15;63.20;100404.50;5073903;28;68517;-44
2022/11/09 06:51:48;;;;;;;;;2.00;2.00;;;;;14.13;63.12;100401.94;5069042;27;71024;-48
2022/11/09 06:54:14;;;;;;;;;3.00;2.00;;;;;14.15;63.31;100399.22;5074646;27;53259;-45
2022/11/09 06:56:39;;;;;;;;;4.00;1.75;;;;;14.14;63.20;100403.63;5093451;27;50260;-47
2022/11/09 06:59:04;;;;;;;;;3.50;2.00;;;;;14.16;63.48;100406.19;5065063;28;55568;-46
2022/11/09 07:01:30;;;;;;;;;2.25;2.00;;;;;14.19;63.21;100408.66;5079591;27;73327;-46
2022/11/09 07:03:55;;;;;;;;;1.00;1.00;;;;;14.18;63.38;100399.94;5081658;28;45356;-46
2022/11/09 07:06:21;;;;;;;;;3.50;2.75;;;;;14.19;63.73;100406.88;5093296;27;55176;-44
2022/11/09 07:08:46;;;;;;;;;6.25;1.50;;;;;14.21;63.52;100406.81;5066507;27;45425;-44
2022/11/09 07:11:15;;;;;;;;;5.00;2.00;;;;;14.23;63.54;100418.13;5080343;28;72272;-46
2022/11/09 07:13:40;;;;;;;;;4.50;2.00;;;;;14.21;63.40;100418.19;5077962;27;45587;-44
2022/11/09 07:16:06;;;;;;;;;2.00;2.00;;;;;14.23;63.69;100421.59;5077629;28;45474;-46
2022/11/09 07:18:32;;;;;;;;;5.75;3.75;;;;;14.25;63.31;100429.41;5075972;27;45200;-45
2022/11/09 07:20:58;;;;;;;;;5.25;3.50;;;;;14.27;63.38;100432.88;5081355;27;46374;-46
2022/11/09 07:23:23;;;;;;;;;6.00;3.00;;;;;14.26;64.04;100430.28;5080219;27;66438;-46
2022/11/09 07:25:48;;;;;;;;;3.50;2.00;;;;;14.27;63.91;100437.25;5080832;28;45300;-46
2022/11/09 07:28:14;;;;;;;;;4.50;3.50;;;;;14.27;63.62;100435.50;5075814;27;55749;-48
2022/11/09 07:30:39;;;;;;;;;3.50;0.75;;;;;14.28;63.63;100438.97;5075332;27;46817;-46
2022/11/09 07:33:19;;;;;;;;;3.00;2.75;;;;;14.28;63.50;100452.97;5073833;27;45477;-46
2022/11/09 07:35:45;;;;;;;;;9.00;5.00;;;;;14.29;63.61;100457.31;5076940;28;45229;-45
2022/11/09 07:38:11;;;;;;;;;5.75;3.00;;;;;14.30;63.69;100450.28;5071537;27;45498;-46
2022/11/09 07:40:37;;;;;;;;;6.50;3.00;;;;;14.32;63.60;100448.41;5065912;28;46918;-50
2022/11/09 07:43:04;;;;;;;;;8.75;3.00;;;;;14.35;63.75;100450.91;5069143;27;45397;-48
2022/11/09 07:45:30;;;;;;;;;4.00;3.00;;;;;14.39;63.84;100449.84;5071908;27;45426;-46
2022/11/09 07:48:03;;;;;;;;;5.00;3.00;;;;;14.41;63.66;100461.13;5070686;28;45264;-49
2022/11/09 07:50:29;;;;;;;;;7.50;3.00;;;;;14.43;63.88;100464.56;5071255;28;46314;-48
2022/11/09 07:52:55;;;;;;;;;4.25;1.50;;;;;14.44;63.72;100464.47;5059619;28;45454;-48
2022/11/09 07:55:21;;;;;;;;;5.00;3.00;;;;;14.46;63.60;100461.78;5080845;28;45399;-48
2022/11/09 07:57:47;;;;;;;;;5.75;3.50;;;;;14.48;63.73;100461.72;5079824;28;45319;-45
2022/11/09 08:00:13;;;;;;;;;4.25;3.25;;;;;14.49;63.93;100468.69;5072125;28;46023;-45
2022/11/09 08:02:39;;;;;;;;;3.50;2.50;;;;;14.49;64.10;100473.97;5077661;27;45227;-47
2022/11/09 08:05:05;;;;;;;;;5.00;3.75;;;;;14.49;63.94;100480.06;5073904;27;45445;-47
2022/11/09 08:07:32;;;;;;;;;4.50;3.50;;;;;14.52;63.83;100474.66;5075044;27;45219;-46
2022/11/09 08:09:57;;;;;;;;;6.50;5.00;;;;;14.53;64.32;100462.34;5076465;27;47125;-45
2022/11/09 08:12:22;;;;;;;;;2.75;2.75;;;;;14.57;63.96;100472.66;5079899;28;45548;-45
2022/11/09 08:14:48;;;;;;;;;6.75;3.00;;;;;14.60;64.05;100477.81;5079753;27;58279;-45
2022/11/09 08:17:13;;;;;;;;;3.00;2.50;;;;;14.64;63.67;100467.13;5077967;27;50423;-45
2022/11/09 08:19:38;;;;;;;;;6.50;2.50;;;;;14.65;63.75;100474.13;5078438;27;68873;-47
2022/11/09 08:22:04;;;;;;;;;4.50;4.00;;;;;14.66;64.27;100467.91;5079328;27;69366;-47
2022/11/09 08:24:29;;;;;;;;;3.50;3.00;;;;;14.69;63.78;100465.97;5073248;27;63101;-44
2022/11/09 08:26:54;;;;;;;;;7.25;5.00;;;;;14.70;63.79;100472.97;5072512;27;45319;-45
2022/11/09 08:29:20;;;;;;;;;2.25;2.00;;;;;14.70;63.62;100478.22;5078085;28;54928;-47
2022/11/09 08:31:48;;;;;;;;;3.50;2.25;;;;;14.70;63.93;100472.13;5069528;28;45460;-44
2022/11/09 08:34:14;;;;;;;;;3.00;2.50;;;;;14.70;63.42;100480.88;5083506;27;45367;-45
2022/11/09 08:36:39;;;;;;;;;4.25;2.00;;;;;14.71;63.69;100484.34;5078757;27;64318;-44
2022/11/09 08:39:05;;;;;;;;;3.50;3.00;;;;;14.72;63.67;100486.91;5080028;27;46052;-45
2022/11/09 08:41:30;;;;;;;;;5.25;1.00;;;;;14.73;63.68;100486.00;5073203;27;62817;-44
2022/11/09 08:43:56;;;;;;;;;7.00;3.00;;;;;14.75;63.68;100497.28;5073324;28;45452;-44
2022/11/09 08:46:21;;;;;;;;;7.00;3.00;;;;;14.76;63.79;100499.00;5068250;27;56095;-45
2022/11/09 08:48:46;;;;;;;;;2.50;2.00;;;;;14.75;63.54;100496.41;5079406;28;46178;-44
2022/11/09 08:51:12;;;;;;;;;3.00;2.75;;;;;14.75;63.83;100497.28;5075870;27;64574;-46
2022/11/09 08:53:37;;;;;;;;;4.25;1.75;;;;;14.75;63.69;100489.41;5071376;28;54588;-45
2022/11/09 08:56:06;;;;;;;;;3.00;3.00;;;;;14.80;63.20;100494.44;5079740;28;45585;-41
2022/11/09 08:58:31;;;;;;;;;5.00;2.25;;;;;14.77;63.35;100502.50;5078502;27;46907;-45
2022/11/09 09:00:56;;;;;;;;;1.50;1.50;;;;;14.80;63.60;100511.09;5076807;27;66948;-44
2022/11/09 09:03:22;;;;;;;;;6.25;2.75;;;;;14.83;63.77;100510.09;5079183;27;52677;-43
2022/11/09 09:05:47;;;;;;;;;1.25;1.25;;;;;14.85;63.52;100520.56;5090447;27;45460;-43
2022/11/09 09:08:14;;;;;;;;;5.75;2.50;;;;;14.87;63.50;100514.28;5078336;27;74001;-44
2022/11/09 09:10:40;;;;;;;;;6.00;3.75;;;;;14.92;63.25;100514.06;5079283;27;45777;-43
2022/11/09 09:13:05;;;;;;;;;3.75;2.50;;;;;14.97;62.97;100519.97;5079230;27;46223;-46
2022/11/09 09:15:30;;;;;;;;;3.00;1.50;;;;;15.01;62.92;100521.50;5073885;28;45252;-45
2022/11/09 09:17:59;;;;;;;;;5.25;2.50;;;;;15.06;63.10;100535.31;5079553;27;45297;-47
2022/11/09 09:20:24;;;;;;;;;2.50;2.50;;;;;15.11;63.35;100537.75;5074172;27;45363;-47
2022/11/09 09:22:49;;;;;;;;;4.25;1.75;;;;;15.16;62.75;100543.66;5065856;27;66591;-47
2022/11/09 09:25:15;;;;;;;;;4.50;4.25;;;;;15.22;63.02;100545.13;5070846;27;63007;-44
2022/11/09 09:27:42;;;;;;;;;2.75;2.75;;;;;15.26;62.77;100536.97;5067880;28;45740;-43
2022/11/09 09:30:08;;;;;;;;;2.25;1.75;;;;;15.32;62.39;100543.75;5097400;27;45272;-44
2022/11/09 09:32:33;;;;;;;;;1.50;1.25;;;;;15.37;62.68;100553.13;5078895;28;45293;-46
2022/11/09 09:34:59;;;;;;;;;5.00;0.75;;;;;15.43;62.22;100548.47;5078043;27;53506;-44
2022/11/09 09:37:24;;;;;;;;;3.00;2.00;;;;;15.47;62.31;100555.28;5077143;27;74164;-43
2022/11/09 09:39:49;;;;;;;;;2.00;1.00;;;;;15.50;61.91;100556.00;5068044;27;71441;-46
2022/11/09 09:42:18;;;;;;;;;6.50;2.00;;;;;15.50;61.64;100556.00;5075136;27;64991;-43
2022/11/09 09:44:57;;;;;;;;;5.75;1.75;;;;;15.54;61.89;100560.16;5086534;27;45563;-44
2022/11/09 09:47:49;;;;;;;;;3.00;1.50;;;;;15.60;61.67;100572.22;5067918;28;45402;-44
2022/11/09 09:50:20;;;;;;;;;3.50;2.00;;;;;15.64;61.05;100562.38;5077173;27;45765;-44
2022/11/09 09:52:58;;;;;;;;;5.00;2.00;;;;;15.67;61.32;100570.97;5077657;27;45428;-43
2022/11/09 09:55:34;;;;;;;;;4.75;2.75;;;;;15.70;61.25;100575.22;5077735;27;45351;-43
2022/11/09 09:58:12;;;;;;;;;3.75;2.00;;;;;15.73;61.04;100575.91;5067626;27;46167;-44
2022/11/09 10:00:38;;;;;;;;;4.25;2.00;;;;;15.78;60.65;100577.53;5067330;28;45398;-44
2022/11/09 10:03:05;;;;;;;;;4.50;3.25;;;;;15.83;60.98;100586.03;5068578;27;45322;-42
2022/11/09 10:05:53;;;;;;;;;9.50;5.25;;;;;15.88;60.84;100592.81;5060530;28;45280;-42
2022/11/09 10:08:34;;;;;;;;;4.00;3.00;;;;;15.95;60.45;100598.59;5040922;28;46370;-45
2022/11/09 10:11:15;;;;;;;;;6.25;3.00;;;;;16.01;60.59;100603.56;5070233;28;45608;-46
2022/11/09 10:13:53;;;;;;;;;4.50;2.00;;;;;16.05;60.35;100614.81;5077100;27;45547;-58
2022/11/09 10:16:27;;;;;;;;;3.00;1.25;;;;;16.09;59.86;100614.56;5076010;27;45829;-57
2022/11/09 10:19:11;;;;;;;;;2.25;1.00;;;;;16.16;59.84;100623.03;5066783;27;46404;-52
2022/11/09 10:21:47;;;;;;;;;5.00;2.25;;;;;16.20;59.18;100629.00;5081806;27;45493;-56
2022/11/09 10:24:30;;;;;;;;;3.25;0.75;;;;;16.25;59.51;100633.09;5079096;27;45529;-52
2022/11/09 10:26:58;;;;;;;;;3.25;2.00;;;;;16.29;59.39;100628.53;5081722;27;45521;-53
2022/11/09 10:29:25;;;;;;;;;3.00;2.00;;;;;16.30;58.98;100628.44;5081956;28;46523;-50
2022/11/09 10:31:54;;;;;;;;;3.75;2.00;;;;;16.33;59.19;100628.28;5078241;27;45567;-48
2022/11/09 10:34:28;;;;;;;;;2.75;2.75;;;;;16.34;59.11;100634.41;5077511;28;45563;-49
2022/11/09 10:37:05;;;;;;;;;5.25;3.00;;;;;16.39;58.96;100636.81;5076795;27;45327;-48
2022/11/09 10:39:46;;;;;;;;;5.50;2.50;;;;;16.41;58.73;100646.34;5059371;28;47982;-48
2022/11/09 10:42:12;;;;;;;;;8.50;2.00;;;;;16.47;58.32;100646.03;5079735;27;45303;-52
2022/11/09 10:44:37;;;;;;;;;4.50;2.00;;;;;16.46;58.69;100636.41;5081835;27;45717;-50
2022/11/09 10:47:06;;;;;;;;;3.00;1.00;;;;;16.58;58.25;100642.81;5044909;28;45269;-52
2022/11/09 10:49:33;;;;;;;;;4.00;1.00;;;;;16.62;58.03;100652.28;5080345;28;46276;-50
2022/11/09 10:51:58;;;;;;;;;7.75;1.00;;;;;16.64;58.02;100639.00;5073935;27;45351;-52
2022/11/09 10:54:34;;;;;;;;;5.50;4.00;;;;;16.66;57.83;100643.28;5068910;27;45348;-49
2022/11/09 10:57:15;;;;;;;;;1.25;1.25;;;;;16.72;57.88;100651.81;5068569;28;45442;-51
2022/11/09 10:59:43;;;;;;;;;5.25;2.00;;;;;16.74;57.10;100657.88;5080053;27;47051;-51
2022/11/09 11:02:24;;;;;;;;;2.00;1.00;;;;;16.77;56.44;100660.31;5078565;27;45245;-51
2022/11/09 11:05:11;;;;;;;;;6.00;1.00;;;;;16.76;56.50;100648.06;5081595;27;45247;-47
2022/11/09 11:07:37;;;;;;;;;1.50;1.50;;;;;16.77;56.81;100649.75;5073972;27;45538;-52
2022/11/09 11:10:14;;;;;;;;;2.50;1.00;;;;;16.81;57.48;100659.25;5072874;28;57196;-52
2022/11/09 11:12:43;;;;;;;;;2.00;1.00;;;;;16.81;56.43;100659.25;5079290;28;45711;-52
2022/11/09 11:15:30;;;;;;;;;1.25;1.00;;;;;16.80;56.69;100663.69;5075528;28;45385;-51
2022/11/09 11:18:00;;;;;;;;;2.75;2.00;;;;;16.80;56.64;100654.88;5076263;27;46105;-53
2022/11/09 11:20:34;;;;;;;;;8.00;2.00;;;;;16.81;56.19;100653.97;5069502;28;45315;-52
2022/11/09 11:23:08;;;;;;;;;6.00;1.00;;;;;16.81;55.91;100651.31;5074001;27;45286;-53
2022/11/09 11:25:39;;;;;;;;;5.00;2.75;;;;;16.78;56.36;100647.03;5086474;27;45287;-52